sensor_id;sensor_type;location;lat;lon;timestamp;temperature;humidity
12156;DHT22;6141;49.092;8.516;2023-06-22T00:00:35;25.40;45.00
12156;DHT22;6141;49.092;8.516;2023-06-22T00:03:03;25.40;45.20
12156;DHT22;6141;49.092;8.516;2023-06-22T00:05:31;25.30;44.80
12156;DHT22;6141;49.092;8.516;2023-06-22T00:08:03;25.30;45.10
12156;DHT22;6141;49.092;8.516;2023-06-22T00:10:32;24.70;46.90
12156;DHT22;6141;49.092;8.516;2023-06-22T00:13:00;24.20;49.40
12156;DHT22;6141;49.092;8.516;2023-06-22T00:15:28;24.10;49.90
12156;DHT22;6141;49.092;8.516;2023-06-22T00:17:56;24.40;48.40
12156;DHT22;6141;49.092;8.516;2023-06-22T00:20:25;24.70;48.10
12156;DHT22;6141;49.092;8.516;2023-06-22T00:22:57;24.30;49.20
12156;DHT22;6141;49.092;8.516;2023-06-22T00:25:26;24.20;49.50
12156;DHT22;6141;49.092;8.516;2023-06-22T00:27:55;24.40;49.10
12156;DHT22;6141;49.092;8.516;2023-06-22T00:30:22;24.40;49.20
12156;DHT22;6141;49.092;8.516;2023-06-22T00:32:51;24.40;49.30
12156;DHT22;6141;49.092;8.516;2023-06-22T00:35:19;24.50;48.20
12156;DHT22;6141;49.092;8.516;2023-06-22T00:37:47;23.90;49.90
12156;DHT22;6141;49.092;8.516;2023-06-22T00:40:15;23.30;53.50
12156;DHT22;6141;49.092;8.516;2023-06-22T00:42:50;23.00;57.20
12156;DHT22;6141;49.092;8.516;2023-06-22T00:45:18;23.10;56.40
12156;DHT22;6141;49.092;8.516;2023-06-22T00:47:46;23.20;59.90
12156;DHT22;6141;49.092;8.516;2023-06-22T00:50:19;23.00;63.30
12156;DHT22;6141;49.092;8.516;2023-06-22T00:52:51;22.70;65.10
12156;DHT22;6141;49.092;8.516;2023-06-22T00:55:20;22.50;66.30
12156;DHT22;6141;49.092;8.516;2023-06-22T00:57:50;22.70;65.30
12156;DHT22;6141;49.092;8.516;2023-06-22T01:00:23;23.20;63.90
12156;DHT22;6141;49.092;8.516;2023-06-22T01:02:54;23.30;61.60
12156;DHT22;6141;49.092;8.516;2023-06-22T01:05:25;23.30;61.40
12156;DHT22;6141;49.092;8.516;2023-06-22T01:08:04;23.40;61.10
12156;DHT22;6141;49.092;8.516;2023-06-22T01:10:40;23.40;61.90
12156;DHT22;6141;49.092;8.516;2023-06-22T01:13:17;23.40;62.00
12156;DHT22;6141;49.092;8.516;2023-06-22T01:15:51;23.80;58.90
12156;DHT22;6141;49.092;8.516;2023-06-22T01:18:23;23.90;57.90
12156;DHT22;6141;49.092;8.516;2023-06-22T01:20:53;24.20;55.30
12156;DHT22;6141;49.092;8.516;2023-06-22T01:23:29;24.40;53.70
12156;DHT22;6141;49.092;8.516;2023-06-22T01:26:06;24.40;54.20
12156;DHT22;6141;49.092;8.516;2023-06-22T01:28:45;24.40;53.00
12156;DHT22;6141;49.092;8.516;2023-06-22T01:31:16;24.60;53.20
12156;DHT22;6141;49.092;8.516;2023-06-22T01:33:48;24.40;53.00
12156;DHT22;6141;49.092;8.516;2023-06-22T01:36:18;23.90;54.70
12156;DHT22;6141;49.092;8.516;2023-06-22T01:38:47;23.70;56.80
12156;DHT22;6141;49.092;8.516;2023-06-22T01:41:19;23.70;56.80
12156;DHT22;6141;49.092;8.516;2023-06-22T01:43:49;23.80;55.90
12156;DHT22;6141;49.092;8.516;2023-06-22T01:46:19;23.90;55.00
12156;DHT22;6141;49.092;8.516;2023-06-22T01:48:48;24.10;54.50
12156;DHT22;6141;49.092;8.516;2023-06-22T01:51:17;24.20;53.60
12156;DHT22;6141;49.092;8.516;2023-06-22T01:53:45;24.30;53.40
12156;DHT22;6141;49.092;8.516;2023-06-22T01:56:17;24.40;53.00
12156;DHT22;6141;49.092;8.516;2023-06-22T01:58:50;24.40;53.00
12156;DHT22;6141;49.092;8.516;2023-06-22T02:01:24;24.40;52.80
12156;DHT22;6141;49.092;8.516;2023-06-22T02:04:02;24.60;52.10
12156;DHT22;6141;49.092;8.516;2023-06-22T02:06:35;24.60;52.40
12156;DHT22;6141;49.092;8.516;2023-06-22T02:09:08;24.40;52.90
12156;DHT22;6141;49.092;8.516;2023-06-22T02:11:46;24.40;52.10
12156;DHT22;6141;49.092;8.516;2023-06-22T02:14:16;24.40;53.00
12156;DHT22;6141;49.092;8.516;2023-06-22T02:16:48;24.20;52.80
12156;DHT22;6141;49.092;8.516;2023-06-22T02:19:22;24.30;52.90
12156;DHT22;6141;49.092;8.516;2023-06-22T02:21:53;24.30;52.90
12156;DHT22;6141;49.092;8.516;2023-06-22T02:24:22;24.20;52.80
12156;DHT22;6141;49.092;8.516;2023-06-22T02:26:51;24.30;52.80
12156;DHT22;6141;49.092;8.516;2023-06-22T02:29:21;24.30;52.50
12156;DHT22;6141;49.092;8.516;2023-06-22T02:31:49;24.30;52.50
12156;DHT22;6141;49.092;8.516;2023-06-22T02:34:19;24.00;53.20
12156;DHT22;6141;49.092;8.516;2023-06-22T02:36:48;23.80;53.50
12156;DHT22;6141;49.092;8.516;2023-06-22T02:39:19;23.80;53.40
12156;DHT22;6141;49.092;8.516;2023-06-22T02:41:50;23.90;53.20
12156;DHT22;6141;49.092;8.516;2023-06-22T02:44:18;23.80;52.90
12156;DHT22;6141;49.092;8.516;2023-06-22T02:46:49;23.80;53.10
12156;DHT22;6141;49.092;8.516;2023-06-22T02:49:19;23.80;52.50
12156;DHT22;6141;49.092;8.516;2023-06-22T02:51:47;23.90;52.70
12156;DHT22;6141;49.092;8.516;2023-06-22T02:54:19;23.80;52.80
12156;DHT22;6141;49.092;8.516;2023-06-22T02:56:49;23.80;53.10
12156;DHT22;6141;49.092;8.516;2023-06-22T02:59:18;23.80;52.80
12156;DHT22;6141;49.092;8.516;2023-06-22T03:01:53;23.80;53.60
12156;DHT22;6141;49.092;8.516;2023-06-22T03:04:26;23.70;53.30
12156;DHT22;6141;49.092;8.516;2023-06-22T03:06:54;23.70;54.00
12156;DHT22;6141;49.092;8.516;2023-06-22T03:09:22;23.70;53.80
12156;DHT22;6141;49.092;8.516;2023-06-22T03:11:50;23.60;54.00
12156;DHT22;6141;49.092;8.516;2023-06-22T03:14:20;23.50;54.30
12156;DHT22;6141;49.092;8.516;2023-06-22T03:16:48;23.40;54.80
12156;DHT22;6141;49.092;8.516;2023-06-22T03:19:20;23.40;54.70
12156;DHT22;6141;49.092;8.516;2023-06-22T03:21:49;23.50;54.20
12156;DHT22;6141;49.092;8.516;2023-06-22T03:24:17;23.50;54.20
12156;DHT22;6141;49.092;8.516;2023-06-22T03:26:45;23.50;54.20
12156;DHT22;6141;49.092;8.516;2023-06-22T03:29:13;23.60;54.10
12156;DHT22;6141;49.092;8.516;2023-06-22T03:31:45;23.60;53.40
12156;DHT22;6141;49.092;8.516;2023-06-22T03:34:13;23.70;52.90
12156;DHT22;6141;49.092;8.516;2023-06-22T03:36:43;23.70;53.10
12156;DHT22;6141;49.092;8.516;2023-06-22T03:39:12;23.50;53.50
12156;DHT22;6141;49.092;8.516;2023-06-22T03:41:41;23.50;53.60
12156;DHT22;6141;49.092;8.516;2023-06-22T03:44:09;23.50;54.10
12156;DHT22;6141;49.092;8.516;2023-06-22T03:46:39;23.00;55.70
12156;DHT22;6141;49.092;8.516;2023-06-22T03:49:07;22.80;57.60
12156;DHT22;6141;49.092;8.516;2023-06-22T03:51:36;22.90;56.80
12156;DHT22;6141;49.092;8.516;2023-06-22T03:54:05;23.10;55.10
12156;DHT22;6141;49.092;8.516;2023-06-22T03:56:33;23.30;54.30
12156;DHT22;6141;49.092;8.516;2023-06-22T03:59:01;23.30;54.40
12156;DHT22;6141;49.092;8.516;2023-06-22T04:01:29;22.90;55.80
12156;DHT22;6141;49.092;8.516;2023-06-22T04:03:57;22.70;57.50
12156;DHT22;6141;49.092;8.516;2023-06-22T04:06:25;22.80;57.60
12156;DHT22;6141;49.092;8.516;2023-06-22T04:08:53;22.90;57.00
12156;DHT22;6141;49.092;8.516;2023-06-22T04:11:22;23.00;56.70
12156;DHT22;6141;49.092;8.516;2023-06-22T04:13:51;23.10;56.60
12156;DHT22;6141;49.092;8.516;2023-06-22T04:16:20;22.60;58.40
12156;DHT22;6141;49.092;8.516;2023-06-22T04:18:48;22.50;59.60
12156;DHT22;6141;49.092;8.516;2023-06-22T04:21:16;22.50;59.60
12156;DHT22;6141;49.092;8.516;2023-06-22T04:23:46;22.70;58.10
12156;DHT22;6141;49.092;8.516;2023-06-22T04:26:14;22.80;57.60
12156;DHT22;6141;49.092;8.516;2023-06-22T04:28:44;22.90;57.70
12156;DHT22;6141;49.092;8.516;2023-06-22T04:31:19;23.10;56.00
12156;DHT22;6141;49.092;8.516;2023-06-22T04:33:49;23.30;55.80
12156;DHT22;6141;49.092;8.516;2023-06-22T04:36:18;23.20;55.80
12156;DHT22;6141;49.092;8.516;2023-06-22T04:38:50;23.30;55.60
12156;DHT22;6141;49.092;8.516;2023-06-22T04:41:19;23.30;55.50
12156;DHT22;6141;49.092;8.516;2023-06-22T04:43:52;23.30;54.80
12156;DHT22;6141;49.092;8.516;2023-06-22T04:46:21;23.30;55.30
12156;DHT22;6141;49.092;8.516;2023-06-22T04:48:49;23.20;55.30
12156;DHT22;6141;49.092;8.516;2023-06-22T04:51:17;23.30;55.40
12156;DHT22;6141;49.092;8.516;2023-06-22T04:53:53;23.30;54.90
12156;DHT22;6141;49.092;8.516;2023-06-22T04:56:27;23.30;55.60
12156;DHT22;6141;49.092;8.516;2023-06-22T04:58:57;23.10;56.20
12156;DHT22;6141;49.092;8.516;2023-06-22T05:01:25;23.00;57.80
12156;DHT22;6141;49.092;8.516;2023-06-22T05:03:54;22.90;57.70
12156;DHT22;6141;49.092;8.516;2023-06-22T05:06:24;22.90;57.70
12156;DHT22;6141;49.092;8.516;2023-06-22T05:08:53;23.20;56.90
12156;DHT22;6141;49.092;8.516;2023-06-22T05:11:24;23.20;57.00
12156;DHT22;6141;49.092;8.516;2023-06-22T05:13:52;23.10;57.60
12156;DHT22;6141;49.092;8.516;2023-06-22T05:16:22;23.20;57.00
12156;DHT22;6141;49.092;8.516;2023-06-22T05:18:52;23.30;57.10
12156;DHT22;6141;49.092;8.516;2023-06-22T05:21:22;23.30;56.60
12156;DHT22;6141;49.092;8.516;2023-06-22T05:23:51;23.50;56.20
12156;DHT22;6141;49.092;8.516;2023-06-22T05:26:19;23.60;56.00
12156;DHT22;6141;49.092;8.516;2023-06-22T05:28:48;23.70;55.90
12156;DHT22;6141;49.092;8.516;2023-06-22T05:31:17;23.70;55.30
12156;DHT22;6141;49.092;8.516;2023-06-22T05:33:50;23.40;56.40
12156;DHT22;6141;49.092;8.516;2023-06-22T05:36:19;23.50;56.20
12156;DHT22;6141;49.092;8.516;2023-06-22T05:38:48;23.70;55.00
12156;DHT22;6141;49.092;8.516;2023-06-22T05:41:16;23.90;54.80
12156;DHT22;6141;49.092;8.516;2023-06-22T05:43:44;23.90;54.60
12156;DHT22;6141;49.092;8.516;2023-06-22T05:46:12;23.90;54.60
12156;DHT22;6141;49.092;8.516;2023-06-22T05:48:40;23.90;54.80
12156;DHT22;6141;49.092;8.516;2023-06-22T05:51:09;23.80;55.60
12156;DHT22;6141;49.092;8.516;2023-06-22T05:53:39;23.80;55.60
12156;DHT22;6141;49.092;8.516;2023-06-22T05:56:07;23.70;56.20
12156;DHT22;6141;49.092;8.516;2023-06-22T05:58:35;23.70;55.50
12156;DHT22;6141;49.092;8.516;2023-06-22T06:01:03;23.80;56.50
12156;DHT22;6141;49.092;8.516;2023-06-22T06:03:31;24.00;56.80
12156;DHT22;6141;49.092;8.516;2023-06-22T06:05:59;24.00;55.10
12156;DHT22;6141;49.092;8.516;2023-06-22T06:08:30;24.00;54.80
12156;DHT22;6141;49.092;8.516;2023-06-22T06:11:01;24.00;55.80
12156;DHT22;6141;49.092;8.516;2023-06-22T06:13:29;23.90;55.50
12156;DHT22;6141;49.092;8.516;2023-06-22T06:15:57;23.70;56.50
12156;DHT22;6141;49.092;8.516;2023-06-22T06:18:26;23.70;57.60
12156;DHT22;6141;49.092;8.516;2023-06-22T06:20:54;24.00;56.80
12156;DHT22;6141;49.092;8.516;2023-06-22T06:23:22;24.00;55.80
12156;DHT22;6141;49.092;8.516;2023-06-22T06:25:51;24.10;56.20
12156;DHT22;6141;49.092;8.516;2023-06-22T06:28:19;24.20;55.50
12156;DHT22;6141;49.092;8.516;2023-06-22T06:30:47;24.20;55.90
12156;DHT22;6141;49.092;8.516;2023-06-22T06:33:15;24.20;56.00
12156;DHT22;6141;49.092;8.516;2023-06-22T06:35:44;23.90;57.10
12156;DHT22;6141;49.092;8.516;2023-06-22T06:38:14;23.70;58.50
12156;DHT22;6141;49.092;8.516;2023-06-22T06:40:42;23.80;58.60
12156;DHT22;6141;49.092;8.516;2023-06-22T06:43:12;24.10;58.30
12156;DHT22;6141;49.092;8.516;2023-06-22T06:45:41;24.30;57.10
12156;DHT22;6141;49.092;8.516;2023-06-22T06:48:09;24.50;56.80
12156;DHT22;6141;49.092;8.516;2023-06-22T06:50:37;24.60;54.60
12156;DHT22;6141;49.092;8.516;2023-06-22T06:53:05;24.90;54.90
12156;DHT22;6141;49.092;8.516;2023-06-22T06:55:33;24.90;53.30
12156;DHT22;6141;49.092;8.516;2023-06-22T06:58:01;24.80;53.40
12156;DHT22;6141;49.092;8.516;2023-06-22T07:00:32;25.00;55.40
12156;DHT22;6141;49.092;8.516;2023-06-22T07:03:01;25.20;53.60
12156;DHT22;6141;49.092;8.516;2023-06-22T07:05:31;25.40;51.80
12156;DHT22;6141;49.092;8.516;2023-06-22T07:07:59;25.30;51.30
12156;DHT22;6141;49.092;8.516;2023-06-22T07:10:27;25.30;51.00
12156;DHT22;6141;49.092;8.516;2023-06-22T07:12:57;25.50;50.60
12156;DHT22;6141;49.092;8.516;2023-06-22T07:15:25;25.50;51.10
12156;DHT22;6141;49.092;8.516;2023-06-22T07:17:54;25.70;50.60
12156;DHT22;6141;49.092;8.516;2023-06-22T07:20:22;25.90;49.30
12156;DHT22;6141;49.092;8.516;2023-06-22T07:22:51;25.90;49.40
12156;DHT22;6141;49.092;8.516;2023-06-22T07:25:19;26.10;49.70
12156;DHT22;6141;49.092;8.516;2023-06-22T07:27:58;26.30;48.40
12156;DHT22;6141;49.092;8.516;2023-06-22T07:30:26;26.50;48.30
12156;DHT22;6141;49.092;8.516;2023-06-22T07:32:56;26.50;48.40
12156;DHT22;6141;49.092;8.516;2023-06-22T07:35:25;26.60;46.80
12156;DHT22;6141;49.092;8.516;2023-06-22T07:37:53;26.90;46.20
12156;DHT22;6141;49.092;8.516;2023-06-22T07:40:22;27.10;46.00
12156;DHT22;6141;49.092;8.516;2023-06-22T07:42:53;27.20;45.10
12156;DHT22;6141;49.092;8.516;2023-06-22T07:45:21;27.30;45.00
12156;DHT22;6141;49.092;8.516;2023-06-22T07:47:49;27.30;44.80
12156;DHT22;6141;49.092;8.516;2023-06-22T07:50:19;27.40;43.60
12156;DHT22;6141;49.092;8.516;2023-06-22T07:52:47;27.50;43.40
12156;DHT22;6141;49.092;8.516;2023-06-22T07:55:15;27.40;44.20
12156;DHT22;6141;49.092;8.516;2023-06-22T07:57:43;27.70;43.20
12156;DHT22;6141;49.092;8.516;2023-06-22T08:00:12;27.70;42.80
12156;DHT22;6141;49.092;8.516;2023-06-22T08:02:44;27.70;42.90
12156;DHT22;6141;49.092;8.516;2023-06-22T08:05:14;27.80;41.80
12156;DHT22;6141;49.092;8.516;2023-06-22T08:07:49;27.80;41.20
12156;DHT22;6141;49.092;8.516;2023-06-22T08:10:19;27.90;41.10
12156;DHT22;6141;49.092;8.516;2023-06-22T08:12:47;28.00;41.10
12156;DHT22;6141;49.092;8.516;2023-06-22T08:15:16;28.20;40.40
12156;DHT22;6141;49.092;8.516;2023-06-22T08:17:44;28.20;38.90
12156;DHT22;6141;49.092;8.516;2023-06-22T08:20:13;28.30;37.90
12156;DHT22;6141;49.092;8.516;2023-06-22T08:22:42;28.40;38.10
12156;DHT22;6141;49.092;8.516;2023-06-22T08:25:12;28.60;38.60
12156;DHT22;6141;49.092;8.516;2023-06-22T08:27:45;28.70;37.00
12156;DHT22;6141;49.092;8.516;2023-06-22T08:30:13;28.90;37.10
12156;DHT22;6141;49.092;8.516;2023-06-22T08:32:41;28.80;34.20
12156;DHT22;6141;49.092;8.516;2023-06-22T08:35:11;28.80;37.10
12156;DHT22;6141;49.092;8.516;2023-06-22T08:37:39;28.90;35.70
12156;DHT22;6141;49.092;8.516;2023-06-22T08:40:09;29.10;36.00
12156;DHT22;6141;49.092;8.516;2023-06-22T08:42:40;28.90;35.10
12156;DHT22;6141;49.092;8.516;2023-06-22T08:45:10;29.00;35.90
12156;DHT22;6141;49.092;8.516;2023-06-22T08:47:39;28.90;34.90
12156;DHT22;6141;49.092;8.516;2023-06-22T08:50:09;28.70;37.00
12156;DHT22;6141;49.092;8.516;2023-06-22T08:52:37;28.70;37.00
12156;DHT22;6141;49.092;8.516;2023-06-22T08:55:08;28.90;35.50
12156;DHT22;6141;49.092;8.516;2023-06-22T08:57:37;29.00;34.70
12156;DHT22;6141;49.092;8.516;2023-06-22T09:00:09;29.20;34.30
12156;DHT22;6141;49.092;8.516;2023-06-22T09:02:43;29.20;34.20
12156;DHT22;6141;49.092;8.516;2023-06-22T09:05:13;29.10;32.70
12156;DHT22;6141;49.092;8.516;2023-06-22T09:07:41;29.20;33.50
12156;DHT22;6141;49.092;8.516;2023-06-22T09:10:10;29.10;30.60
12156;DHT22;6141;49.092;8.516;2023-06-22T09:12:39;29.10;31.80
12156;DHT22;6141;49.092;8.516;2023-06-22T09:15:09;29.30;33.30
12156;DHT22;6141;49.092;8.516;2023-06-22T09:17:42;29.40;32.50
12156;DHT22;6141;49.092;8.516;2023-06-22T09:20:11;29.40;32.20
12156;DHT22;6141;49.092;8.516;2023-06-22T09:22:39;29.20;30.80
12156;DHT22;6141;49.092;8.516;2023-06-22T09:25:08;29.10;32.00
12156;DHT22;6141;49.092;8.516;2023-06-22T09:27:36;29.00;33.70
12156;DHT22;6141;49.092;8.516;2023-06-22T09:30:07;29.20;32.80
12156;DHT22;6141;49.092;8.516;2023-06-22T09:32:38;29.40;31.50
12156;DHT22;6141;49.092;8.516;2023-06-22T09:35:07;29.70;31.00
12156;DHT22;6141;49.092;8.516;2023-06-22T09:37:37;29.70;29.60
12156;DHT22;6141;49.092;8.516;2023-06-22T09:40:06;29.90;29.10
12156;DHT22;6141;49.092;8.516;2023-06-22T09:42:37;30.00;30.10
12156;DHT22;6141;49.092;8.516;2023-06-22T09:45:07;30.20;30.10
12156;DHT22;6141;49.092;8.516;2023-06-22T09:47:35;30.20;28.60
12156;DHT22;6141;49.092;8.516;2023-06-22T09:50:06;30.10;29.80
12156;DHT22;6141;49.092;8.516;2023-06-22T09:52:35;30.20;30.00
12156;DHT22;6141;49.092;8.516;2023-06-22T09:55:07;30.10;28.50
12156;DHT22;6141;49.092;8.516;2023-06-22T09:57:42;30.40;29.20
12156;DHT22;6141;49.092;8.516;2023-06-22T10:00:11;30.50;29.30
12156;DHT22;6141;49.092;8.516;2023-06-22T10:02:41;30.50;30.40
12156;DHT22;6141;49.092;8.516;2023-06-22T10:05:11;30.50;29.20
12156;DHT22;6141;49.092;8.516;2023-06-22T10:07:40;30.50;28.50
12156;DHT22;6141;49.092;8.516;2023-06-22T10:10:12;30.50;29.10
12156;DHT22;6141;49.092;8.516;2023-06-22T10:12:42;30.30;28.00
12156;DHT22;6141;49.092;8.516;2023-06-22T10:15:11;30.30;29.60
12156;DHT22;6141;49.092;8.516;2023-06-22T10:17:40;30.50;29.20
12156;DHT22;6141;49.092;8.516;2023-06-22T10:20:10;30.40;28.30
12156;DHT22;6141;49.092;8.516;2023-06-22T10:22:45;30.30;30.00
12156;DHT22;6141;49.092;8.516;2023-06-22T10:25:13;30.40;31.10
12156;DHT22;6141;49.092;8.516;2023-06-22T10:27:41;30.40;28.70
12156;DHT22;6141;49.092;8.516;2023-06-22T10:30:11;30.50;30.00
12156;DHT22;6141;49.092;8.516;2023-06-22T10:32:42;30.50;28.80
12156;DHT22;6141;49.092;8.516;2023-06-22T10:35:12;30.30;29.70
12156;DHT22;6141;49.092;8.516;2023-06-22T10:37:44;30.20;29.20
12156;DHT22;6141;49.092;8.516;2023-06-22T10:40:13;30.30;29.50
12156;DHT22;6141;49.092;8.516;2023-06-22T10:42:42;30.50;29.00
12156;DHT22;6141;49.092;8.516;2023-06-22T10:45:10;30.50;28.70
12156;DHT22;6141;49.092;8.516;2023-06-22T10:47:38;30.40;28.90
12156;DHT22;6141;49.092;8.516;2023-06-22T10:50:09;30.40;29.60
12156;DHT22;6141;49.092;8.516;2023-06-22T10:52:38;30.50;29.20
12156;DHT22;6141;49.092;8.516;2023-06-22T10:55:09;30.50;28.40
12156;DHT22;6141;49.092;8.516;2023-06-22T10:57:37;30.40;29.00
12156;DHT22;6141;49.092;8.516;2023-06-22T11:00:13;30.40;29.90
12156;DHT22;6141;49.092;8.516;2023-06-22T11:02:41;30.30;28.90
12156;DHT22;6141;49.092;8.516;2023-06-22T11:05:10;30.00;29.40
12156;DHT22;6141;49.092;8.516;2023-06-22T11:07:45;30.10;30.00
12156;DHT22;6141;49.092;8.516;2023-06-22T11:10:15;30.30;30.00
12156;DHT22;6141;49.092;8.516;2023-06-22T11:12:43;30.40;29.20
12156;DHT22;6141;49.092;8.516;2023-06-22T11:15:12;30.40;28.90
12156;DHT22;6141;49.092;8.516;2023-06-22T11:17:40;30.50;28.00
12156;DHT22;6141;49.092;8.516;2023-06-22T11:20:09;30.60;28.10
12156;DHT22;6141;49.092;8.516;2023-06-22T11:22:38;30.60;28.40
12156;DHT22;6141;49.092;8.516;2023-06-22T11:25:09;30.40;29.70
12156;DHT22;6141;49.092;8.516;2023-06-22T11:27:38;30.30;29.20
12156;DHT22;6141;49.092;8.516;2023-06-22T11:30:07;30.20;28.50
12156;DHT22;6141;49.092;8.516;2023-06-22T11:32:35;30.10;29.30
12156;DHT22;6141;49.092;8.516;2023-06-22T11:35:04;30.20;30.20
12156;DHT22;6141;49.092;8.516;2023-06-22T11:37:32;30.40;29.50
12156;DHT22;6141;49.092;8.516;2023-06-22T11:40:00;30.40;27.80
12156;DHT22;6141;49.092;8.516;2023-06-22T11:42:35;30.50;29.20
12156;DHT22;6141;49.092;8.516;2023-06-22T11:45:05;30.60;28.50
12156;DHT22;6141;49.092;8.516;2023-06-22T11:47:34;30.60;28.40
12156;DHT22;6141;49.092;8.516;2023-06-22T11:50:03;30.60;28.50
12156;DHT22;6141;49.092;8.516;2023-06-22T11:52:33;30.50;30.10
12156;DHT22;6141;49.092;8.516;2023-06-22T11:55:03;30.30;30.00
12156;DHT22;6141;49.092;8.516;2023-06-22T11:57:35;30.30;31.50
12156;DHT22;6141;49.092;8.516;2023-06-22T12:00:04;30.30;31.50
12156;DHT22;6141;49.092;8.516;2023-06-22T12:02:43;30.40;31.60
12156;DHT22;6141;49.092;8.516;2023-06-22T12:05:12;30.60;29.80
12156;DHT22;6141;49.092;8.516;2023-06-22T12:07:41;30.40;29.10
12156;DHT22;6141;49.092;8.516;2023-06-22T12:10:09;30.50;31.70
12156;DHT22;6141;49.092;8.516;2023-06-22T12:12:39;30.60;30.60
12156;DHT22;6141;49.092;8.516;2023-06-22T12:15:08;30.80;30.30
12156;DHT22;6141;49.092;8.516;2023-06-22T12:17:36;30.90;28.70
12156;DHT22;6141;49.092;8.516;2023-06-22T12:20:06;30.90;29.70
12156;DHT22;6141;49.092;8.516;2023-06-22T12:22:35;30.40;28.90
12156;DHT22;6141;49.092;8.516;2023-06-22T12:25:05;30.60;28.90
12156;DHT22;6141;49.092;8.516;2023-06-22T12:27:36;30.60;31.70
12156;DHT22;6141;49.092;8.516;2023-06-22T12:30:08;30.60;28.50
12156;DHT22;6141;49.092;8.516;2023-06-22T12:32:38;30.80;28.80
12156;DHT22;6141;49.092;8.516;2023-06-22T12:35:07;30.80;28.50
12156;DHT22;6141;49.092;8.516;2023-06-22T12:37:40;30.90;28.60
12156;DHT22;6141;49.092;8.516;2023-06-22T12:40:10;31.00;28.60
12156;DHT22;6141;49.092;8.516;2023-06-22T12:42:39;31.10;28.30
12156;DHT22;6141;49.092;8.516;2023-06-22T12:45:11;31.00;27.10
12156;DHT22;6141;49.092;8.516;2023-06-22T12:47:42;31.00;27.80
12156;DHT22;6141;49.092;8.516;2023-06-22T12:50:11;31.20;29.70
12156;DHT22;6141;49.092;8.516;2023-06-22T12:52:39;31.50;30.00
12156;DHT22;6141;49.092;8.516;2023-06-22T12:55:08;31.60;28.20
12156;DHT22;6141;49.092;8.516;2023-06-22T12:57:36;31.70;27.10
12156;DHT22;6141;49.092;8.516;2023-06-22T13:00:06;31.90;27.80
12156;DHT22;6141;49.092;8.516;2023-06-22T13:02:38;31.90;29.00
12156;DHT22;6141;49.092;8.516;2023-06-22T13:05:08;31.90;28.00
12156;DHT22;6141;49.092;8.516;2023-06-22T13:07:36;32.00;27.00
12156;DHT22;6141;49.092;8.516;2023-06-22T13:10:05;32.00;27.00
12156;DHT22;6141;49.092;8.516;2023-06-22T13:12:34;32.10;26.50
12156;DHT22;6141;49.092;8.516;2023-06-22T13:15:02;32.20;27.10
12156;DHT22;6141;49.092;8.516;2023-06-22T13:17:31;32.20;25.90
12156;DHT22;6141;49.092;8.516;2023-06-22T13:20:06;32.40;25.60
12156;DHT22;6141;49.092;8.516;2023-06-22T13:22:35;32.50;25.20
12156;DHT22;6141;49.092;8.516;2023-06-22T13:25:08;32.40;27.20
12156;DHT22;6141;49.092;8.516;2023-06-22T13:27:39;32.30;27.10
12156;DHT22;6141;49.092;8.516;2023-06-22T13:30:08;32.20;26.60
12156;DHT22;6141;49.092;8.516;2023-06-22T13:32:40;32.10;25.70
12156;DHT22;6141;49.092;8.516;2023-06-22T13:35:12;32.00;27.00
12156;DHT22;6141;49.092;8.516;2023-06-22T13:37:40;32.00;27.00
12156;DHT22;6141;49.092;8.516;2023-06-22T13:40:08;31.90;26.90
12156;DHT22;6141;49.092;8.516;2023-06-22T13:42:37;31.80;26.90
12156;DHT22;6141;49.092;8.516;2023-06-22T13:45:07;31.80;26.90
12156;DHT22;6141;49.092;8.516;2023-06-22T13:47:36;31.90;28.00
12156;DHT22;6141;49.092;8.516;2023-06-22T13:50:05;31.70;26.80
12156;DHT22;6141;49.092;8.516;2023-06-22T13:52:34;31.60;28.40
12156;DHT22;6141;49.092;8.516;2023-06-22T13:55:03;31.50;26.70
12156;DHT22;6141;49.092;8.516;2023-06-22T13:57:33;31.50;28.90
12156;DHT22;6141;49.092;8.516;2023-06-22T14:00:01;31.70;28.40
12156;DHT22;6141;49.092;8.516;2023-06-22T14:02:40;31.60;29.50
12156;DHT22;6141;49.092;8.516;2023-06-22T14:05:09;31.80;26.90
12156;DHT22;6141;49.092;8.516;2023-06-22T14:07:39;31.70;26.80
12156;DHT22;6141;49.092;8.516;2023-06-22T14:10:07;31.60;27.70
12156;DHT22;6141;49.092;8.516;2023-06-22T14:12:36;31.40;28.00
12156;DHT22;6141;49.092;8.516;2023-06-22T14:15:04;31.40;29.70
12156;DHT22;6141;49.092;8.516;2023-06-22T14:17:33;31.10;29.20
12156;DHT22;6141;49.092;8.516;2023-06-22T14:20:01;31.30;29.10
12156;DHT22;6141;49.092;8.516;2023-06-22T14:22:30;31.30;28.40
12156;DHT22;6141;49.092;8.516;2023-06-22T14:24:59;31.10;27.00
12156;DHT22;6141;49.092;8.516;2023-06-22T14:27:28;31.10;27.50
12156;DHT22;6141;49.092;8.516;2023-06-22T14:29:56;31.00;27.30
12156;DHT22;6141;49.092;8.516;2023-06-22T14:32:24;30.90;28.40
12156;DHT22;6141;49.092;8.516;2023-06-22T14:34:52;30.90;27.90
12156;DHT22;6141;49.092;8.516;2023-06-22T14:37:20;30.60;27.90
12156;DHT22;6141;49.092;8.516;2023-06-22T14:39:49;30.40;26.80
12156;DHT22;6141;49.092;8.516;2023-06-22T14:42:18;30.20;26.70
12156;DHT22;6141;49.092;8.516;2023-06-22T14:44:46;30.10;27.00
12156;DHT22;6141;49.092;8.516;2023-06-22T14:47:15;29.90;26.80
12156;DHT22;6141;49.092;8.516;2023-06-22T14:49:45;30.00;28.00
12156;DHT22;6141;49.092;8.516;2023-06-22T14:52:14;30.10;27.10
12156;DHT22;6141;49.092;8.516;2023-06-22T14:54:42;30.10;29.20
12156;DHT22;6141;49.092;8.516;2023-06-22T14:57:12;30.30;30.50
12156;DHT22;6141;49.092;8.516;2023-06-22T14:59:46;30.30;28.70
12156;DHT22;6141;49.092;8.516;2023-06-22T15:02:15;30.20;29.00
12156;DHT22;6141;49.092;8.516;2023-06-22T15:04:44;30.10;29.60
12156;DHT22;6141;49.092;8.516;2023-06-22T15:07:14;30.30;29.70
12156;DHT22;6141;49.092;8.516;2023-06-22T15:09:42;30.10;29.10
12156;DHT22;6141;49.092;8.516;2023-06-22T15:12:12;30.00;30.00
12156;DHT22;6141;49.092;8.516;2023-06-22T15:14:41;30.00;29.10
12156;DHT22;6141;49.092;8.516;2023-06-22T15:17:10;30.10;28.70
12156;DHT22;6141;49.092;8.516;2023-06-22T15:19:41;30.30;28.20
12156;DHT22;6141;49.092;8.516;2023-06-22T15:22:09;30.40;28.80
12156;DHT22;6141;49.092;8.516;2023-06-22T15:24:37;30.30;27.60
12156;DHT22;6141;49.092;8.516;2023-06-22T15:27:06;30.30;28.10
12156;DHT22;6141;49.092;8.516;2023-06-22T15:29:34;30.30;28.30
12156;DHT22;6141;49.092;8.516;2023-06-22T15:32:03;30.30;27.80
12156;DHT22;6141;49.092;8.516;2023-06-22T15:34:32;30.30;27.60
12156;DHT22;6141;49.092;8.516;2023-06-22T15:37:01;30.30;28.10
12156;DHT22;6141;49.092;8.516;2023-06-22T15:39:29;30.40;28.40
12156;DHT22;6141;49.092;8.516;2023-06-22T15:41:57;30.50;28.20
12156;DHT22;6141;49.092;8.516;2023-06-22T15:44:25;30.50;27.50
12156;DHT22;6141;49.092;8.516;2023-06-22T15:46:55;30.60;26.10
12156;DHT22;6141;49.092;8.516;2023-06-22T15:49:23;30.70;27.30
12156;DHT22;6141;49.092;8.516;2023-06-22T15:51:52;30.90;27.10
12156;DHT22;6141;49.092;8.516;2023-06-22T15:54:20;30.90;26.90
12156;DHT22;6141;49.092;8.516;2023-06-22T15:56:48;31.00;26.40
12156;DHT22;6141;49.092;8.516;2023-06-22T15:59:16;30.90;26.30